Silverio Manuel — CUEZ7 — position and weather

sailwx.info

Track history (hours):
 
Tides and Currents Weather Stations Pressure Air Temp Water Temp Dewpoint Dewpoint Depression Visibility Wind Speed Wind Dir Waves Ship Positions

Silverio Manuel

Last reported at 2017-Oct-30 01:27 UTC. Time now 2017-Nov-18 06:46 UTC.
Position N 40°42' W 009°10'.
Warning: this ship's position is 19 days out of date.

Length 20 m.

Type: Fishing. MMSI: 263412870.

Date/timePositionNaut miles runAvg speedWind from/ knotsBaromVisibWave heightAir tempDewpointWater temp
2017-Oct-30 01:27N 40°42' W 009°10'4 5.8
2017-Oct-30 00:51N 40°39' W 009°08'2 4.5
2017-Oct-30 00:21N 40°40' W 009°06'4 7.2
2017-Oct-29 23:50N 40°40' W 009°02'3 7.3
2017-Oct-29 23:24N 40°39' W 008°57'  
2017-Oct-23 07:23N 40°38' W 009°22'0 0.4
2017-Oct-23 06:55N 40°38' W 009°22'0 0.9
2017-Oct-23 06:26N 40°38' W 009°22'1 1.0
2017-Oct-23 05:54N 40°37' W 009°21'  
Track history (hours):
 
Tides and Currents Weather Stations Pressure Air Temp Water Temp Dewpoint Dewpoint Depression Visibility Wind Speed Wind Dir Waves Ship Positions

Silverio Manuel

Last reported at 2017-Oct-30 01:27 UTC. Time now 2017-Nov-18 06:46 UTC.
Position N 40°42' W 009°10'.
Warning: this ship's position is 19 days out of date.

Length 20 m.

Type: Fishing. MMSI: 263412870.

Date/timePositionNaut miles runAvg speedWind from/ knotsBaromVisibWave heightAir tempDewpointWater temp
2017-Oct-30 01:27N 40°42' W 009°10'4 5.8
2017-Oct-30 00:51N 40°39' W 009°08'2 4.5
2017-Oct-30 00:21N 40°40' W 009°06'4 7.2
2017-Oct-29 23:50N 40°40' W 009°02'3 7.3
2017-Oct-29 23:24N 40°39' W 008°57'  
2017-Oct-23 07:23N 40°38' W 009°22'0 0.4
2017-Oct-23 06:55N 40°38' W 009°22'0 0.9
2017-Oct-23 06:26N 40°38' W 009°22'1 1.0
2017-Oct-23 05:54N 40°37' W 009°21'  

Dump ship's entire track history